Date,TemperatureHighF,TemperatureAvgF,TemperatureLowF,DewpointHighF,DewpointAvgF,DewpointLowF,HumidityHigh,HumidityAvg,HumidityLow,PressureMaxIn,PressureMinIn,WindSpeedMaxMPH,WindSpeedAvgMPH,GustSpeedMaxMPH,PrecipitationSumIn
2013-1-1,60.5,51.8,43.5,59.9,48.3,39.0,98,88,72,30.17,29.87,10,5,17,0.08
2013-1-2,45.3,41.9,38.3,38.9,32.4,30.1,84,69,57,30.27,30.17,8,4,14,0.00
2013-1-3,44.1,42.9,40.6,33.1,32.6,32.1,73,67,63,30.37,30.25,7,3,9,0.00
2013-1-4,43.5,41.0,38.4,39.5,36.8,32.8,92,85,66,30.46,30.33,8,4,12,0.03
2013-1-5,55.4,45.1,36.6,44.6,39.6,33.9,92,81,66,30.34,30.16,4,1,7,0.00
2013-1-6,61.4,46.1,31.7,38.6,33.7,30.2,96,66,34,30.33,30.21,10,3,16,0.00
2013-1-7,57.3,46.7,33.3,47.5,37.7,28.8,87,71,54,30.26,29.98,6,2,12,0.00
2013-1-8,57.7,52.3,48.1,57.1,51.4,47.0,98,97,86,29.97,29.76,8,5,17,0.50
2013-1-9,64.5,57.8,50.8,59.5,55.8,49.1,98,93,82,29.96,29.79,15,5,19,1.69
2013-1-10,67.1,54.0,43.6,49.8,46.3,41.8,97,78,48,30.00,29.91,11,4,21,0.00
2013-1-11,69.9,57.9,42.5,66.6,54.6,40.4,97,89,76,29.96,29.74,10,3,14,0.00
2013-1-12,73.7,69.6,67.7,69.1,67.5,66.2,96,93,83,29.74,29.57,11,5,13,0.00
2013-1-13,55.0,47.0,40.9,35.2,32.6,28.9,64,57,45,30.11,30.02,8,4,14,0.00
2013-1-14,52.9,42.6,36.2,36.7,30.4,25.2,70,62,53,30.18,30.03,11,8,20,0.00
2013-1-15,41.2,39.1,36.6,35.8,32.4,25.9,89,77,65,30.21,30.05,11,8,16,0.00
2013-1-16,55.8,41.6,30.0,28.3,22.3,18.6,70,49,24,30.31,30.13,12,4,19,0.00
2013-1-17,68.1,49.7,32.3,40.6,33.7,25.6,79,57,33,30.41,30.25,8,2,13,0.00
2013-1-18,64.8,50.0,34.9,40.7,35.9,29.8,87,61,35,30.45,30.25,8,2,10,0.00
2013-1-19,69.0,52.8,38.7,50.5,42.6,36.0,95,71,43,30.26,30.08,13,3,17,0.00
2013-1-20,71.2,54.0,38.5,57.0,46.4,36.2,94,77,52,30.20,30.03,7,2,12,0.00
2013-1-21,72.8,57.0,43.5,58.3,49.2,41.7,96,77,53,30.17,30.06,6,1,7,0.00
2013-1-22,73.5,59.7,48.4,55.2,49.2,44.1,87,70,50,30.24,30.11,10,3,14,0.00
2013-1-23,76.3,61.8,46.6,61.2,54.3,44.4,97,78,55,30.27,30.12,11,3,15,0.00
2013-1-24,81.3,66.9,57.6,65.6,60.7,55.8,97,82,55,30.19,30.02,11,5,15,0.00
2013-1-25,80.1,73.6,65.9,64.9,62.9,60.4,88,70,57,30.02,29.93,8,3,12,0.00
2013-1-26,73.4,64.0,55.8,62.6,58.7,53.7,95,83,66,30.08,29.94,8,4,12,0.00
2013-1-27,79.8,68.5,60.3,67.4,63.9,58.8,96,86,64,30.01,29.86,16,7,22,0.00
2013-1-28,75.7,71.4,68.5,68.6,67.4,66.3,95,87,76,29.96,29.78,14,9,19,0.00
2013-1-29,87.4,72.6,59.0,69.5,58.6,29.5,92,66,32,29.77,29.40,20,11,27,0.00
2013-1-30,61.3,53.8,38.7,29.9,23.3,18.5,55,31,20,30.18,29.74,17,7,24,0.00
2013-1-31,68.8,49.8,31.0,33.9,26.6,22.7,80,46,21,30.26,30.12,12,4,16,0.00
2013-2-1,72.5,58.2,42.9,48.5,40.4,33.9,85,55,29,30.28,30.10,15,5,20,0.00
2013-2-2,76.0,60.1,43.9,58.9,49.0,40.8,92,69,46,30.18,30.08,13,2,16,0.00
2013-2-3,72.1,62.6,54.6,55.6,46.4,39.4,85,57,40,30.25,29.94,9,5,14,0.00
2013-2-4,77.6,64.7,55.8,62.2,57.4,51.4,94,79,52,29.94,29.70,12,3,15,0.00
2013-2-5,82.1,65.3,49.3,56.6,47.9,41.9,95,60,27,29.90,29.78,7,1,9,0.00
2013-2-6,74.1,65.0,59.7,63.3,59.7,56.1,95,83,64,29.90,29.75,10,3,12,0.00
2013-2-7,78.8,66.2,59.0,65.2,58.7,44.2,96,78,48,29.98,29.78,8,3,13,0.00
2013-2-8,70.3,63.3,55.0,49.8,40.2,35.6,65,44,29,30.09,29.98,11,3,18,0.00
2013-2-9,69.6,60.1,53.7,67.6,57.1,40.8,98,90,58,30.00,29.70,13,4,18,0.00
2013-2-10,70.0,65.9,60.0,67.5,47.4,32.7,96,56,28,29.93,29.67,11,4,20,0.00
2013-2-11,61.3,56.4,51.5,50.5,46.1,38.8,94,70,44,29.97,29.86,11,7,16,0.02
2013-2-12,75.0,60.7,51.2,58.0,46.5,28.0,97,67,24,29.95,29.73,10,4,15,0.00
2013-2-13,56.3,49.9,46.7,38.9,34.8,33.5,60,56,51,30.02,29.98,11,8,16,0.00
2013-2-14,70.1,61.9,51.3,43.5,41.1,38.7,69,47,37,29.99,29.93,9,4,12,0.00
2013-2-15,69.8,53.4,40.2,49.1,40.3,27.4,92,64,36,30.31,30.00,12,4,17,0.00
2013-2-16,66.6,50.7,33.7,34.1,28.4,23.6,72,44,28,30.42,30.16,10,3,13,0.00
2013-2-17,71.6,55.6,34.4,54.4,40.9,28.9,86,60,39,30.16,29.90,16,8,24,0.00
2013-2-18,81.2,67.9,60.8,63.1,53.4,31.9,88,63,32,29.96,29.75,14,7,18,0.00
2013-2-19,64.8,55.7,47.0,39.0,35.5,34.4,63,47,33,30.17,29.97,12,5,18,0.00
2013-2-20,69.3,60.9,53.8,66.0,54.0,32.7,93,79,38,30.02,29.57,13,7,20,0.00
2013-2-21,79.4,70.3,58.4,68.2,48.2,27.0,92,54,17,29.76,29.48,15,6,19,0.00
2013-2-22,59.2,53.3,50.0,41.1,34.7,27.7,69,50,32,29.93,29.77,9,4,16,0.00
2013-2-23,72.7,56.3,43.1,45.1,37.8,30.5,64,51,35,29.99,29.78,7,3,14,0.00
2013-2-24,68.8,57.5,41.3,60.2,50.6,37.6,94,78,64,29.83,29.52,12,4,17,0.00
2013-2-25,66.4,58.5,48.4,60.7,38.0,21.5,97,52,19,29.82,29.49,21,10,31,0.00
2013-2-26,66.7,53.5,41.6,34.1,29.8,27.6,58,42,26,29.91,29.78,12,5,16,0.00
2013-2-27,58.5,47.8,41.1,36.6,32.7,30.1,78,57,39,30.05,29.80,15,3,19,0.00
2013-3-1,63.6,56.8,49.1,27.3,23.3,20.5,42,28,19,30.21,30.12,11,2,14,0.00
2013-3-2,67.5,53.6,41.4,34.4,30.6,26.4,58,43,28,30.36,30.18,10,4,18,0.00
2013-3-3,77.8,56.9,35.5,46.0,36.4,27.6,77,50,24,30.21,29.88,17,7,24,0.00
2013-3-4,88.4,73.1,51.5,55.8,49.4,42.7,77,47,25,29.87,29.63,13,5,17,0.00
2013-3-5,68.8,58.2,43.3,56.7,33.5,18.1,93,45,20,30.29,29.69,18,6,27,0.00
2013-3-6,64.8,50.9,38.0,29.0,22.9,17.4,48,34,21,30.38,30.15,10,3,12,0.00
2013-3-7,72.3,57.6,39.4,56.9,47.7,29.8,90,71,50,30.16,30.00,12,5,21,0.00
2013-3-8,69.5,63.9,60.8,65.3,60.6,55.4,94,89,81,30.05,29.90,12,5,17,0.00
2013-3-9,75.6,71.0,68.3,67.5,65.7,64.4,89,84,75,29.62,29.54,16,11,22,0.03
2013-3-10,69.4,62.8,50.6,64.3,43.9,34.3,94,53,31,30.06,29.55,13,5,20,0.12
2013-3-11,71.7,54.3,38.7,35.4,32.3,26.9,79,47,24,30.13,29.92,9,2,13,0.00
2013-3-12,80.5,60.0,37.8,44.6,35.2,29.4,77,44,21,30.12,29.99,13,4,19,0.00
2013-3-13,77.2,61.8,47.8,50.2,43.1,39.8,86,54,29,30.35,30.13,10,3,14,0.00
2013-3-14,79.1,68.6,52.2,55.0,48.5,39.5,78,51,33,30.27,30.13,12,7,17,0.00
2013-3-15,81.5,66.1,48.4,59.4,51.5,44.5,96,64,29,30.17,29.91,14,6,23,0.00
2013-3-16,85.2,68.7,54.5,63.8,57.8,52.2,95,72,35,29.93,29.65,16,8,23,0.00
2013-3-17,86.8,73.0,65.3,66.7,63.1,59.9,90,74,44,29.73,29.53,12,5,19,0.00
2013-3-18,81.8,70.8,66.1,65.2,57.3,43.6,94,68,26,29.82,29.62,9,4,15,0.00
2013-3-19,81.8,71.9,55.6,66.9,59.5,47.1,80,65,53,29.91,29.72,11,5,15,0.00
2013-3-20,73.1,64.8,57.6,64.6,50.7,42.0,86,63,38,30.13,29.84,14,6,24,0.00
2013-3-21,77.3,65.8,55.1,62.5,54.8,43.8,88,68,57,29.94,29.55,17,8,24,0.00
2013-3-22,84.5,69.9,65.6,68.7,64.7,58.7,95,85,50,29.64,29.51,9,5,16,0.00
2013-3-23,82.9,72.1,59.9,66.8,60.6,53.0,82,68,54,29.68,29.49,8,3,11,0.00
2013-3-24,68.3,58.1,47.8,60.0,32.6,25.3,84,41,24,30.09,29.61,12,4,14,0.00
2013-3-25,60.7,53.8,44.3,27.3,21.6,17.1,51,30,19,30.31,30.09,9,3,17,0.00
2013-3-26,66.1,53.3,37.2,32.8,25.4,22.3,58,35,21,30.44,30.21,7,3,11,0.00
2013-3-27,69.1,56.7,40.8,52.0,41.9,32.0,75,58,47,30.25,30.08,12,6,18,0.00
2013-3-28,70.0,64.4,59.0,60.7,57.3,51.8,85,78,69,30.12,30.04,11,6,18,0.00
2013-3-29,77.5,68.7,59.0,62.8,59.6,57.0,95,75,52,30.09,29.95,13,6,18,0.00
2013-3-30,85.9,72.6,64.3,67.7,63.5,61.6,93,75,49,30.01,29.79,13,7,18,0.00
2013-3-31,81.4,69.3,62.6,68.1,64.2,60.8,95,85,59,29.87,29.74,15,3,20,0.89
2013-4-1,85.7,72.8,62.9,70.2,64.6,60.8,96,78,50,29.96,29.77,12,2,16,0.00
2013-4-2,80.3,70.4,59.0,68.5,65.1,56.4,95,84,67,29.92,29.69,14,5,16,0.55
2013-4-3,59.0,55.1,50.0,57.5,52.7,46.5,95,91,86,30.07,29.66,14,5,21,1.05
2013-4-4,70.1,56.6,48.4,50.9,46.3,42.8,88,70,46,30.16,30.00,10,4,16,0.01
2013-4-5,72.4,57.0,40.4,54.0,46.8,38.0,94,71,48,30.22,29.99,5,2,7,0.00
2013-4-6,81.0,66.2,53.2,62.3,56.7,48.5,93,73,50,30.00,29.76,13,6,24,0.00
2013-4-7,85.0,76.7,68.3,67.1,64.5,62.7,83,67,53,29.75,29.65,13,10,19,0.00
2013-4-8,76.8,71.1,67.5,69.1,66.3,62.7,92,85,76,29.75,29.57,12,7,19,0.00
2013-4-9,89.1,76.6,70.9,73.5,69.4,66.6,89,79,56,29.62,29.44,13,7,19,0.00
2013-4-10,74.8,61.8,48.3,70.0,55.2,44.3,94,79,62,29.85,29.52,15,7,22,0.00
2013-4-11,69.4,57.4,46.7,47.7,42.8,36.3,81,60,41,29.92,29.72,7,2,13,0.01
2013-4-12,81.1,63.4,45.0,55.2,46.7,41.4,93,59,29,29.92,29.75,8,2,13,0.00
2013-4-13,78.7,65.5,51.6,62.3,54.3,43.7,95,69,46,29.88,29.67,8,3,16,0.00
2013-4-14,89.1,71.0,58.1,69.9,62.4,55.6,95,77,45,29.74,29.51,11,3,15,0.00
2013-4-15,90.2,77.6,69.4,71.6,67.4,63.5,92,73,42,29.70,29.58,10,6,17,0.00
2013-4-16,85.9,75.9,66.8,73.0,68.4,63.6,93,78,60,29.78,29.67,12,5,21,0.00
2013-4-17,79.5,75.8,73.0,73.7,72.0,70.4,96,88,79,29.77,29.54,11,6,16,0.00
2013-4-18,76.2,66.0,55.4,72.4,56.2,39.0,92,73,46,29.99,29.54,13,6,24,0.15
2013-4-19,71.6,59.0,46.3,38.4,34.4,28.0,67,42,22,30.21,29.99,13,3,23,0.00
2013-4-20,73.0,54.3,39.1,49.4,39.1,33.3,86,59,28,30.16,29.90,12,3,15,0.00
2013-4-21,80.5,65.7,52.1,60.6,54.2,47.3,88,69,46,30.05,29.89,8,2,12,0.00
2013-4-22,84.4,72.8,61.2,65.4,62.2,58.6,93,71,48,30.02,29.76,11,6,16,0.00
2013-4-23,79.2,69.9,56.3,70.3,62.9,46.3,90,79,56,29.97,29.74,12,4,17,0.00
2013-4-24,63.1,54.9,47.1,46.2,40.6,-99.9,79,60,45,30.17,29.97,12,6,23,0.00
2013-4-25,69.9,62.0,57.2,53.0,46.8,41.9,70,58,46,30.26,30.09,9,3,15,0.00
2013-4-26,80.0,69.4,59.8,72.0,64.6,52.5,97,85,70,30.11,29.92,11,4,17,0.00
2013-4-27,80.4,73.0,66.1,71.8,68.1,-99.9,95,86,71,29.99,29.82,12,2,14,1.07
2013-4-28,80.7,70.5,59.3,69.1,64.4,58.4,98,83,61,29.94,29.76,9,2,14,0.36
2013-4-29,84.9,72.9,66.9,69.9,66.8,64.4,96,83,54,29.84,29.66,15,2,20,0.09
2013-4-30,83.1,73.3,66.0,71.1,67.3,64.6,97,83,60,29.74,29.61,17,1,17,0.00
2013-5-1,86.1,76.4,68.9,73.3,69.3,66.3,94,80,61,29.81,29.68,7,2,15,0.00
2013-5-2,76.1,59.1,50.4,70.6,51.7,38.6,93,77,62,30.29,29.73,16,10,27,0.63
2013-5-3,69.1,56.9,46.6,40.8,36.2,32.3,70,48,28,30.30,30.01,13,5,22,0.00
2013-5-4,76.4,53.2,41.9,48.9,41.7,38.9,92,69,32,30.03,29.91,9,2,13,0.00
2013-5-5,62.9,62.2,61.4,50.5,49.9,49.3,65,64,64,29.99,29.98,1,0,2,0.00
2013-5-6,71.0,58.3,52.0,55.5,50.0,46.7,83,74,58,30.04,29.91,2,0,4,0.00
2013-5-7,84.1,69.6,52.5,62.3,55.7,49.6,96,65,38,30.00,29.83,8,3,17,0.00
2013-5-8,84.7,73.2,63.0,68.5,64.6,59.1,94,76,54,29.92,29.77,12,6,18,0.00
2013-5-9,81.9,74.5,64.8,73.2,69.4,60.8,93,84,74,29.87,29.71,9,4,16,0.00
2013-5-10,83.2,71.4,63.1,72.2,64.9,59.8,96,81,61,29.90,29.74,11,2,22,0.25
2013-5-11,81.6,72.5,64.0,66.3,60.9,54.0,90,69,50,30.04,29.92,9,3,16,0.00
2013-5-12,80.9,70.8,60.2,58.4,53.6,49.7,73,55,39,30.16,30.00,8,2,12,0.00
2013-5-13,83.3,71.2,53.8,64.4,56.5,49.0,90,62,40,30.18,30.05,6,2,14,0.00
2013-5-14,85.7,73.7,59.9,68.6,63.8,56.3,94,72,54,30.13,29.90,10,4,18,0.00
2013-5-15,73.2,71.8,71.0,68.4,68.2,67.9,91,88,84,29.99,29.91,6,2,12,0.00
2013-5-17,95.6,87.5,77.5,77.4,74.5,70.1,82,66,48,29.79,29.66,12,6,19,0.00
2013-5-18,94.8,81.6,72.6,74.6,70.7,67.2,94,72,47,29.81,29.70,15,6,22,0.00
2013-5-19,92.2,81.7,73.5,75.0,71.8,67.4,89,73,55,29.75,29.60,12,7,22,0.00
2013-5-20,91.9,81.0,72.1,74.8,72.0,70.0,94,76,54,29.74,29.58,11,6,20,0.00
2013-5-21,90.4,81.1,73.4,76.0,72.9,67.2,94,77,61,29.75,29.58,12,4,20,0.00
2013-5-22,88.8,77.7,64.7,75.2,67.2,58.3,88,71,60,29.83,29.68,7,2,12,0.00
2013-5-23,92.6,81.8,74.2,76.1,72.9,71.2,92,76,54,29.90,29.73,9,4,17,0.00
2013-5-24,78.0,73.1,68.5,74.1,70.8,66.4,97,93,80,30.01,29.89,5,1,10,1.04
2013-5-25,79.0,73.0,68.0,73.8,70.7,67.1,98,93,78,30.08,29.91,8,1,14,2.17
2013-5-26,84.6,76.8,71.4,77.4,72.5,69.5,97,87,71,30.00,29.86,9,2,15,0.01
2013-5-27,81.8,75.1,72.3,74.4,71.2,68.8,94,88,71,29.93,29.75,9,4,17,0.00
2013-5-28,88.2,79.5,74.0,75.8,72.4,70.8,91,80,61,29.82,29.65,13,8,22,0.00
2013-5-29,86.3,78.5,74.1,75.8,72.9,70.9,93,83,69,29.79,29.60,15,8,21,0.00
2013-5-30,88.9,80.8,75.4,77.4,74.2,72.2,90,81,66,29.73,29.65,12,5,18,0.00
2013-5-31,92.1,82.1,74.5,79.3,75.4,72.3,94,81,60,29.78,29.63,11,5,18,0.00
2013-6-1,93.5,83.8,76.6,79.3,75.3,73.4,91,77,56,29.79,29.67,11,5,20,0.00
2013-6-2,86.0,76.9,67.4,75.0,68.7,62.9,96,77,49,29.95,29.79,7,1,15,0.11
2013-6-3,89.8,77.6,64.9,74.4,68.1,62.5,97,74,51,29.89,29.73,5,1,10,0.00
2013-6-4,90.1,80.4,70.0,74.1,70.0,65.0,96,73,44,29.81,29.70,7,3,13,0.00
2013-6-5,90.7,80.3,69.2,75.5,70.8,67.2,96,75,47,29.78,29.63,8,3,13,0.00
2013-6-6,91.8,80.6,70.7,75.7,70.8,67.8,96,74,48,29.81,29.65,10,1,16,0.00
2013-6-7,78.1,73.3,67.2,71.1,67.1,64.6,93,81,69,29.91,29.78,9,2,15,0.01
2013-6-8,88.9,76.0,61.8,75.9,69.2,60.4,96,81,59,29.83,29.68,11,2,16,0.00
2013-6-9,88.8,80.0,74.5,79.2,74.0,70.0,95,83,66,29.86,29.73,10,2,13,0.00
2013-6-10,92.0,81.0,71.9,77.4,73.0,68.9,95,78,55,29.89,29.79,10,1,18,0.19
2013-6-11,91.1,78.9,74.0,76.3,73.8,70.9,95,85,59,29.94,29.85,10,1,14,0.04
2013-6-12,75.9,75.3,75.0,74.3,73.6,71.4,96,95,86,29.91,29.87,6,0,11,0.38
2013-6-13,87.8,77.3,73.5,79.7,74.7,70.8,97,92,71,29.96,29.84,12,1,18,0.34
2013-6-14,85.0,78.3,73.2,78.2,75.3,72.2,98,91,76,29.91,29.79,5,1,7,0.05
2013-6-15,91.1,81.2,75.2,78.7,75.7,73.2,97,84,61,29.90,29.77,6,1,10,0.01
2013-6-16,93.3,83.0,75.6,78.4,75.1,71.1,95,79,51,29.91,29.79,8,3,12,0.00
2013-6-17,93.6,84.4,76.7,78.2,75.0,72.0,92,75,53,29.89,29.73,9,4,15,0.00
2013-6-18,93.7,83.6,76.0,76.1,73.8,71.3,93,74,51,29.90,29.75,6,2,13,0.00
2013-6-19,94.6,84.3,75.6,76.7,73.7,68.8,93,73,45,29.88,29.77,9,4,15,0.00
2013-6-20,94.0,83.8,74.4,76.0,73.2,70.6,93,72,50,29.95,29.83,9,4,17,0.00
2013-6-21,94.2,84.2,76.1,76.3,72.8,65.7,94,71,45,29.97,29.85,8,4,16,0.00
2013-6-22,94.3,86.8,77.9,74.7,71.9,68.8,90,64,46,29.91,29.78,8,5,16,0.00
2013-6-23,80.5,77.5,76.2,74.5,74.0,73.0,93,89,78,29.87,29.84,6,4,11,0.00
2013-6-24,95.1,90.4,80.3,73.8,72.4,70.2,80,57,48,29.87,29.78,11,8,19,0.00
2013-6-25,96.8,85.6,77.5,74.9,73.2,70.0,89,69,43,29.90,29.75,12,6,19,0.00
2013-6-26,98.3,92.0,78.7,77.1,73.6,71.7,81,56,43,29.85,29.75,8,5,15,0.00
2013-6-27,101.1,86.6,75.4,74.8,71.0,62.4,90,64,31,29.92,29.79,8,2,14,0.00
2013-6-28,103.1,87.8,75.3,75.8,71.3,65.6,94,63,33,29.90,29.70,8,1,11,0.00
2013-6-29,106.2,91.1,74.2,76.2,70.0,62.9,91,54,29,29.77,29.61,6,0,8,0.00
2013-6-30,89.7,78.7,70.0,74.0,69.2,64.2,96,75,43,29.92,29.67,12,1,25,0.68
2013-7-1,90.8,80.3,72.0,69.4,62.2,57.3,88,55,38,29.90,29.78,10,2,16,0.00
2013-7-2,92.8,79.4,65.6,66.5,60.0,54.6,79,55,29,29.98,29.84,3,0,13,0.00
2013-7-3,96.2,82.7,69.8,65.6,56.6,50.0,65,43,23,29.93,29.77,6,1,10,0.00
2013-7-4,96.5,82.4,67.1,72.7,65.2,56.9,96,60,31,29.89,29.76,6,1,11,0.00
2013-7-5,80.6,75.4,72.6,69.7,68.3,63.1,89,79,56,29.86,29.84,4,0,7,0.00
2013-7-6,95.7,91.9,83.0,72.4,68.3,63.8,70,47,37,29.80,29.70,9,3,15,0.00
2013-7-7,97.4,82.0,74.1,77.8,74.1,71.8,96,79,46,29.87,29.76,8,1,14,0.48
2013-7-8,87.7,79.1,74.6,77.1,74.5,71.7,96,87,62,30.01,29.87,10,1,18,0.01
2013-7-9,96.4,84.0,73.9,77.9,74.7,71.6,97,76,45,30.05,29.88,9,2,13,0.01
2013-7-10,97.1,85.2,75.8,77.5,74.1,70.2,95,72,44,30.00,29.80,11,2,14,0.00
2013-7-11,96.3,85.1,74.7,76.7,72.1,66.5,94,68,39,29.91,29.76,9,2,16,0.00
2013-7-12,98.3,85.4,74.3,76.5,71.3,65.7,94,66,36,29.87,29.75,9,2,13,0.00
2013-7-13,99.8,86.1,71.6,75.8,69.0,62.7,94,61,33,29.88,29.72,7,1,12,0.00
2013-7-15,73.1,72.6,72.2,71.9,71.1,70.1,96,95,91,29.90,29.83,2,0,4,0.49
2013-7-16,87.1,78.2,73.1,77.0,73.3,71.6,95,85,66,30.00,29.91,11,2,15,0.09
2013-7-17,86.7,76.7,72.9,75.6,72.5,71.0,96,87,65,30.06,29.99,12,2,22,0.00
2013-7-18,89.9,80.2,72.7,77.3,72.9,70.5,96,80,55,30.05,29.89,8,2,14,0.00
2013-7-19,93.3,81.8,71.7,76.4,73.0,70.1,97,77,49,29.97,29.79,7,1,13,0.09
2013-7-20,94.0,84.6,73.3,76.6,72.9,68.7,96,70,46,29.90,29.73,10,2,16,0.01
2013-7-21,94.4,83.7,75.5,79.4,75.3,73.0,94,77,53,29.85,29.75,9,3,15,0.00
2013-7-22,97.9,86.4,78.1,78.0,75.6,71.9,93,72,46,29.89,29.76,10,5,19,0.00
2013-7-23,97.5,86.1,77.4,77.0,74.1,67.8,90,70,41,29.91,29.75,9,5,16,0.00
2013-7-24,98.1,86.0,76.8,77.5,73.9,68.7,92,70,43,29.88,29.74,8,2,15,0.00
2013-7-25,97.5,85.8,74.9,76.9,73.3,69.1,94,69,41,29.92,29.82,11,3,15,0.00
2013-7-26,97.9,86.1,76.0,78.9,74.6,71.2,94,71,43,29.93,29.76,9,2,15,0.00
2013-7-27,91.3,83.8,76.3,78.6,74.8,70.9,94,75,59,29.89,29.74,7,2,15,0.00
2013-7-28,97.1,85.3,75.9,77.5,73.2,70.0,85,69,47,29.84,29.72,8,3,14,0.00
2013-7-29,99.2,86.8,78.5,76.3,73.7,69.0,88,68,38,29.93,29.81,9,5,23,0.00
2013-7-30,101.2,86.9,78.2,76.9,73.4,66.9,88,68,35,29.98,29.84,11,4,17,0.00
2013-7-31,101.0,86.9,74.0,74.6,70.4,62.9,94,63,29,30.00,29.80,8,2,12,0.00
2013-8-1,100.8,87.9,74.9,76.5,71.9,67.8,94,63,38,29.93,29.77,9,2,11,0.00
2013-8-2,99.3,87.1,74.2,76.0,70.9,67.4,93,62,37,29.88,29.75,10,3,14,0.00
2013-8-3,98.9,87.3,76.1,75.3,73.1,69.9,92,66,40,29.91,29.79,10,4,17,0.00
2013-8-4,99.1,87.0,78.1,77.5,74.4,68.3,92,69,43,29.94,29.80,8,3,16,0.00
2013-8-5,102.1,87.5,76.5,76.9,73.0,67.1,91,65,36,29.93,29.75,10,4,16,0.00
2013-8-6,89.7,80.0,76.2,76.4,73.8,71.7,92,82,63,29.85,29.81,10,3,14,0.00
2013-8-7,92.9,87.8,83.5,76.0,74.4,72.0,69,65,58,29.78,29.69,10,7,13,0.00
2013-8-8,101.8,87.6,77.9,77.9,72.9,59.3,87,65,27,29.80,29.65,10,4,16,0.00
2013-8-9,100.0,86.7,74.2,76.1,70.8,63.2,93,64,31,29.85,29.73,7,2,13,0.00
2013-8-10,100.2,86.4,73.9,75.1,73.2,70.2,92,67,42,29.93,29.80,15,2,18,0.00
2013-8-11,98.0,83.2,76.9,77.0,74.5,70.6,93,77,42,29.97,29.83,15,1,18,0.00
2013-8-12,96.6,84.4,73.5,75.1,72.8,70.1,94,71,44,29.97,29.82,8,2,13,0.00
2013-8-13,100.4,87.4,76.1,76.6,72.6,66.9,93,65,38,29.94,29.77,9,3,14,0.00
2013-8-14,102.2,87.6,75.8,75.2,71.3,63.4,92,62,30,29.90,29.73,9,2,15,0.00
2013-8-15,100.7,85.4,76.9,74.5,71.1,66.6,88,65,35,29.89,29.77,8,1,11,0.00
2013-8-16,98.4,83.5,73.1,78.5,71.7,63.9,95,71,40,29.92,29.77,10,0,20,0.08
2013-8-17,96.2,84.5,72.4,75.7,67.7,59.3,93,61,34,29.92,29.79,7,2,15,0.00
2013-8-18,96.2,82.8,69.0,71.0,65.2,60.5,82,57,38,29.94,29.84,5,1,10,0.00
2013-8-19,94.9,81.4,69.2,69.3,65.2,60.8,88,61,36,29.95,29.80,7,1,10,0.00
2013-8-20,95.6,82.2,70.7,74.7,70.6,65.2,95,70,41,29.91,29.83,8,3,15,0.00
2013-8-21,96.1,81.5,74.5,76.7,72.4,69.3,92,75,47,29.97,29.86,11,1,16,0.00
2013-8-22,95.0,83.2,73.2,76.6,73.1,70.7,96,74,47,29.98,29.82,7,1,10,0.00
2013-8-23,97.6,86.0,74.5,76.4,72.1,68.2,94,66,40,29.92,29.77,6,1,15,0.00
2013-8-24,99.9,87.2,74.2,74.8,71.6,68.6,90,63,39,29.93,29.79,8,2,12,0.00
2013-8-25,96.8,84.8,74.2,74.8,71.4,69.2,85,66,42,29.97,29.86,8,2,16,0.00
2013-8-26,89.4,79.0,74.0,76.5,73.7,71.8,96,85,58,29.99,29.91,9,2,15,0.08
2013-8-27,91.7,80.4,73.4,76.9,73.3,71.3,96,81,53,30.00,29.91,9,2,16,0.00
2013-8-28,96.5,84.0,74.4,76.1,72.4,68.9,96,71,44,30.01,29.87,7,2,11,0.00
2013-8-29,97.5,85.1,73.7,76.8,71.6,67.8,96,67,42,29.99,29.84,6,1,9,0.00
2013-8-30,100.9,87.7,74.8,74.9,70.9,67.8,89,60,38,29.93,29.76,7,2,11,0.00
2013-8-31,100.0,86.9,73.7,74.5,71.2,68.9,90,62,40,29.84,29.70,6,2,15,0.00
2013-9-1,99.9,86.6,74.0,76.1,71.4,67.5,94,64,38,29.82,29.69,8,2,13,0.00
2013-9-2,99.7,86.7,76.2,75.8,72.3,67.2,93,65,38,29.87,29.69,11,2,14,0.00
2013-9-3,100.4,86.8,72.2,73.2,69.3,64.3,90,59,36,29.90,29.75,8,1,15,0.00
2013-9-4,100.1,85.4,77.6,77.5,72.6,70.5,83,67,40,29.94,29.82,11,1,15,0.04
2013-9-5,98.5,82.3,72.0,75.9,71.8,69.2,96,73,43,29.98,29.85,9,1,11,0.00
2013-9-6,96.8,83.8,73.4,76.2,72.3,69.4,95,71,44,29.99,29.82,9,1,20,0.00
2013-9-7,95.2,80.9,75.3,76.9,73.7,71.7,94,80,49,29.92,29.79,12,1,12,0.17
2013-9-8,91.0,80.1,73.4,76.4,72.8,70.0,97,80,55,29.88,29.78,11,2,18,0.00
2013-9-9,92.6,78.3,72.6,75.9,72.3,70.5,96,83,51,29.88,29.79,16,2,20,0.00
2013-9-10,89.0,78.1,72.5,77.7,73.6,70.4,98,87,64,29.94,29.85,11,2,14,0.01
2013-9-11,93.0,86.4,77.9,76.7,72.0,67.3,84,64,44,29.97,29.87,9,2,15,0.15
2013-9-12,94.4,82.2,72.1,76.6,71.1,64.6,97,72,39,29.95,29.79,8,1,13,0.00
2013-9-13,96.8,84.2,71.3,72.1,67.4,61.0,94,62,32,29.87,29.70,7,2,15,0.00
2013-9-14,95.4,82.5,70.0,73.1,69.6,65.8,94,67,43,29.83,29.72,8,2,12,0.00
2013-9-15,94.7,83.8,73.5,76.5,72.4,70.0,90,70,49,29.90,29.80,8,2,13,0.00
2013-9-16,88.0,77.5,73.8,80.7,73.7,70.7,96,88,70,29.94,29.84,11,1,18,0.33
2013-9-17,88.3,79.3,73.1,77.6,73.8,69.1,96,84,64,29.95,29.81,7,1,11,0.00
2013-9-18,92.8,79.7,73.4,77.4,73.9,71.8,97,84,56,29.90,29.78,11,1,14,0.42
2013-9-19,92.0,80.7,73.5,79.9,75.3,72.6,98,85,57,29.84,29.69,9,1,13,0.01
2013-9-20,81.2,76.5,70.9,79.1,74.5,69.4,97,93,88,29.76,29.65,8,2,15,0.57
2013-9-21,85.2,75.5,65.1,70.1,64.9,55.4,94,72,42,29.82,29.71,10,3,16,0.00
2013-9-22,85.3,71.0,58.4,60.5,54.5,49.1,82,59,30,29.81,29.68,6,1,14,0.00
2013-9-23,89.5,72.4,55.1,63.9,55.9,51.8,93,61,31,29.75,29.65,4,0,10,0.00
2013-9-24,95.3,78.1,62.2,67.9,62.4,58.1,89,62,34,29.83,29.71,5,0,7,0.00
2013-9-25,95.0,80.6,66.7,71.0,64.6,61.2,90,62,37,29.79,29.67,6,1,10,0.00
2013-9-26,91.7,80.6,68.9,75.1,69.2,60.9,95,70,47,29.79,29.69,8,2,14,0.00
2013-9-27,91.6,81.9,75.6,81.4,75.6,72.4,95,82,63,29.80,29.69,9,4,20,0.00
2013-9-28,91.8,82.2,76.1,79.4,76.5,73.5,96,84,58,29.86,29.75,11,4,18,0.00
2013-9-29,78.4,73.3,68.3,74.2,69.5,65.6,97,88,76,29.95,29.83,12,2,17,0.09
2013-9-30,90.8,76.1,62.3,68.6,64.1,60.7,97,70,38,29.87,29.70,4,0,11,0.00
2013-10-1,92.7,80.3,71.0,76.7,73.2,65.2,97,81,53,29.82,29.70,7,2,11,0.00
2013-10-2,91.7,82.2,76.0,76.4,73.9,70.2,94,78,55,29.85,29.74,7,3,14,0.00
2013-10-3,92.3,80.4,74.4,75.7,74.0,72.0,95,82,53,29.83,29.74,10,4,16,0.00
2013-10-4,91.4,84.7,77.5,73.8,72.4,70.6,87,68,53,29.79,29.71,8,3,14,0.00
2013-10-5,89.0,78.0,64.1,74.1,68.5,47.6,96,74,53,29.94,29.76,6,1,14,0.00
2013-10-6,80.4,66.4,53.6,55.7,49.7,44.2,95,60,29,30.06,29.92,6,1,14,0.48
2013-10-7,85.0,67.1,48.6,54.5,49.0,44.6,93,59,25,30.09,29.95,5,0,7,0.00
2013-10-8,85.1,68.1,51.6,57.2,52.2,48.8,94,61,32,30.01,29.88,4,1,10,0.00
2013-10-9,84.3,70.7,55.9,66.3,60.1,52.1,96,71,47,29.97,29.84,7,1,17,0.00
2013-10-10,86.9,74.9,64.3,70.0,65.9,61.5,93,75,51,29.93,29.77,9,2,16,0.00
2013-10-11,91.2,80.0,73.1,76.2,73.2,68.4,93,81,59,29.83,29.71,11,3,19,0.00
2013-10-12,93.2,83.0,76.3,77.1,75.1,72.5,94,78,55,29.90,29.78,9,3,14,0.00
2013-10-13,78.7,73.4,67.6,75.7,71.5,64.9,98,94,86,30.06,29.89,11,2,14,0.53
2013-10-14,86.0,76.8,71.8,75.9,72.9,71.2,99,89,67,29.98,29.80,10,3,17,0.01
2013-10-15,86.1,77.2,66.7,74.4,71.1,61.4,95,82,62,29.89,29.76,9,2,15,0.00
2013-10-16,66.3,59.4,55.7,61.0,57.4,54.6,97,93,83,30.00,29.82,5,1,13,0.44
2013-10-17,72.8,62.8,53.1,58.8,54.4,50.5,93,76,51,30.06,29.90,4,1,8,0.00
2013-10-18,73.8,65.8,57.9,68.3,61.8,53.8,96,87,80,29.92,29.78,3,1,10,0.00
2013-10-19,69.2,60.2,49.4,65.4,49.2,43.0,96,70,39,30.11,29.89,5,1,13,0.00
2013-10-20,75.8,59.2,44.4,55.9,48.7,42.2,95,71,42,30.04,29.84,6,1,10,0.00
2013-10-21,78.9,68.7,59.5,69.8,63.3,55.6,96,84,71,29.95,29.80,7,1,14,0.00
2013-10-22,76.6,64.8,52.3,58.0,49.6,42.9,84,61,31,30.08,29.96,6,2,15,0.00
2013-10-23,82.5,63.0,45.4,52.2,47.2,42.4,93,62,29,30.11,30.01,6,1,10,0.00
2013-10-24,81.1,66.1,47.4,58.3,52.9,44.9,94,66,37,30.15,30.04,6,1,10,0.00
2013-10-25,81.0,67.6,53.7,65.3,59.6,52.0,96,77,53,30.22,30.08,8,2,13,0.00
2013-10-26,83.1,71.5,63.7,68.5,64.7,62.2,96,80,57,30.13,29.97,8,2,14,0.00
2013-10-27,83.8,73.3,66.9,71.2,67.8,64.5,96,83,59,30.01,29.89,5,1,11,0.00
2013-10-28,84.6,75.4,66.9,71.5,68.3,64.5,96,80,59,29.99,29.86,9,4,14,0.00
2013-10-29,84.9,76.9,71.6,74.1,70.3,68.1,93,81,61,29.98,29.84,10,5,18,0.00
2013-10-30,85.1,78.1,73.9,76.9,74.0,70.5,95,88,73,29.92,29.70,10,5,18,0.00
2013-10-31,85.2,74.4,57.4,74.4,63.3,45.5,97,73,26,29.80,29.69,11,3,21,0.17
2013-11-1,86.3,62.0,49.8,65.4,53.4,47.6,96,77,43,29.86,29.76,8,1,15,0.00
2013-11-2,75.8,67.2,52.1,44.5,41.5,38.9,68,41,28,30.21,30.08,7,2,15,0.00
2013-11-3,71.9,51.3,47.0,42.4,41.5,40.3,81,70,32,30.14,29.97,2,0,2,0.00
2013-11-4,71.3,67.1,60.5,64.1,61.5,57.2,93,83,72,29.98,29.86,4,0,11,0.00
2013-11-5,80.7,72.5,65.2,70.7,67.5,63.4,97,85,66,29.92,29.79,6,2,14,0.00
2013-11-6,82.7,67.4,55.9,72.9,60.5,43.4,95,79,62,30.24,29.86,8,2,13,0.00
2013-11-7,64.2,55.6,48.1,43.6,39.3,33.3,71,56,36,30.39,30.24,7,1,11,0.00
2013-11-8,65.3,58.2,52.0,50.2,44.1,39.8,74,60,42,30.31,30.10,4,1,13,0.00
2013-11-9,72.1,61.9,54.9,60.7,55.3,48.8,93,79,66,30.12,30.02,5,0,10,0.00
2013-11-10,67.7,64.1,60.1,60.9,59.0,56.2,91,84,73,30.21,30.07,4,0,6,0.00
2013-11-11,77.4,66.0,58.9,59.3,56.2,54.1,91,72,50,30.19,30.05,2,0,4,0.00
2013-11-12,67.3,58.0,46.1,57.1,49.7,29.9,85,74,53,30.56,30.14,11,4,20,0.00
2013-11-13,57.5,45.0,36.4,32.2,28.4,26.4,76,53,34,30.55,30.35,3,0,6,0.00
2013-11-14,63.4,48.6,31.1,47.5,36.1,27.4,92,65,37,30.35,29.99,4,0,7,0.00
2013-11-15,78.9,64.3,48.8,60.6,54.8,45.8,94,73,51,29.98,29.78,9,2,15,0.00
2013-11-16,82.7,72.8,63.4,72.2,67.7,60.5,96,85,66,29.83,29.66,16,5,24,0.00
2013-11-17,88.3,77.3,69.0,72.5,70.2,65.7,94,80,55,29.84,29.68,8,2,14,0.00
2013-11-18,80.8,70.2,61.6,69.9,65.3,60.1,96,85,66,30.00,29.83,7,2,15,0.00
2013-11-19,70.2,64.5,57.5,64.8,53.1,45.6,92,67,51,30.05,29.91,7,3,14,0.00
2013-11-20,74.2,66.6,59.0,68.5,61.5,54.8,94,84,73,29.93,29.79,4,1,9,0.00
2013-11-21,82.0,74.7,70.3,73.6,71.1,68.5,95,89,72,29.94,29.83,8,3,13,0.00
2013-11-22,74.4,47.9,36.9,72.0,45.5,34.1,95,91,83,30.33,29.93,11,5,19,0.16
2013-11-23,42.9,39.7,37.3,41.0,37.2,34.4,100,91,85,30.40,30.31,7,3,15,0.08
2013-11-24,41.4,38.9,34.8,40.2,36.3,33.2,96,90,79,30.42,30.28,8,1,15,0.42
2013-11-25,41.8,38.2,34.8,40.5,36.7,33.5,97,94,87,30.29,30.02,7,2,14,0.39
2013-11-26,51.0,42.6,38.0,38.7,35.1,30.9,87,76,57,30.33,30.08,12,4,21,0.00
2013-11-27,53.9,41.4,32.0,31.3,27.5,23.5,88,61,32,30.44,30.29,6,1,15,0.00
2013-11-28,56.4,41.5,32.5,32.2,29.5,27.4,87,65,35,30.41,30.28,1,0,3,0.00
2013-11-29,63.8,49.9,35.1,52.0,43.9,29.5,95,80,65,30.44,30.27,5,1,11,0.00
2013-11-30,70.2,59.2,47.9,59.9,52.9,44.9,93,80,67,30.31,30.10,7,1,12,0.00
2013-12-1,74.4,62.3,54.5,63.1,57.6,51.5,96,85,66,30.11,29.90,9,1,12,0.00
2013-12-2,80.9,65.9,56.5,63.2,57.2,51.8,96,76,47,29.89,29.61,9,2,14,0.00
2013-12-3,87.2,66.0,49.6,61.2,52.5,46.5,96,67,27,29.65,29.52,7,1,12,0.00
2013-12-4,76.7,64.0,52.1,67.4,60.0,49.5,98,87,71,29.71,29.59,8,1,11,0.00
2013-12-5,67.8,50.1,34.9,66.9,45.2,29.6,97,83,69,30.01,29.69,12,5,18,0.00
2013-12-6,43.6,35.0,30.7,34.8,30.1,24.6,94,82,68,30.37,29.99,10,4,15,0.01
2013-12-7,34.8,31.0,28.0,26.5,24.1,20.6,85,75,68,30.41,30.24,8,3,13,0.00
2013-12-8,49.7,39.1,29.9,41.2,34.2,26.4,89,83,70,30.24,29.97,0,0,2,0.00
2013-12-9,45.1,40.3,35.8,41.7,38.6,32.6,96,94,86,30.31,30.00,8,4,17,0.01
2013-12-10,50.3,38.6,28.8,32.5,27.2,24.6,91,66,37,30.46,30.28,9,1,14,0.00
2013-12-11,60.0,43.5,29.7,35.1,30.3,24.3,88,62,34,30.46,30.27,1,0,4,0.00
2013-12-12,52.2,44.7,36.7,36.5,34.0,29.9,77,66,54,30.54,30.26,5,1,8,0.00
2013-12-13,50.5,47.9,46.0,49.1,42.1,36.0,96,81,67,30.25,29.84,4,1,9,0.00
2013-12-14,60.5,51.1,43.2,48.4,41.2,31.6,97,71,49,30.26,29.85,12,3,19,0.00
2013-12-15,62.6,46.7,30.4,34.4,30.9,25.3,86,57,33,30.36,30.20,3,0,10,0.00
2013-12-16,62.5,46.8,34.1,34.8,32.5,28.9,82,60,35,30.26,30.14,0,0,0,0.00
2013-12-17,71.5,52.0,34.4,46.5,38.3,31.5,93,63,35,30.27,30.15,5,0,13,0.00
2013-12-18,71.7,56.7,39.3,53.2,47.3,35.6,87,72,50,30.22,29.98,8,2,12,0.00
2013-12-19,77.1,65.5,57.6,63.7,59.5,52.9,93,82,60,29.97,29.70,15,4,20,0.00
2013-12-20,75.3,69.0,63.7,67.7,65.3,61.6,95,88,74,29.75,29.52,11,4,18,0.00
2013-12-21,73.5,65.1,47.6,68.3,55.2,39.6,96,74,31,29.77,29.44,12,2,20,0.41
2013-12-22,63.9,51.0,41.2,45.6,40.0,31.3,90,67,48,30.29,29.77,12,3,17,0.00
2013-12-23,58.7,44.4,32.1,31.9,28.5,24.7,83,57,31,30.44,30.29,3,0,9,0.00
2013-12-24,60.0,46.1,29.3,40.3,30.5,26.2,91,59,29,30.48,30.21,7,1,11,0.00
2013-12-25,58.4,49.6,39.1,49.4,44.5,37.0,95,83,71,30.30,30.17,6,2,7,0.00
2013-12-26,51.8,48.0,45.0,44.8,41.3,37.3,91,78,69,30.36,30.26,6,2,13,0.00
2013-12-27,53.6,48.9,45.4,48.9,45.5,43.2,95,88,77,30.37,30.26,5,1,9,0.20
2013-12-28,56.8,50.2,44.3,47.6,44.6,40.7,94,82,64,30.26,29.97,5,1,9,0.00
2013-12-29,63.5,49.5,37.8,52.7,43.8,32.8,96,82,65,30.19,29.92,12,2,20,0.00
2013-12-30,43.4,39.3,36.5,32.8,29.9,26.7,83,69,57,30.35,30.16,11,2,15,0.00
2013-12-31,51.2,42.8,36.5,33.4,31.0,27.8,81,64,43,30.41,30.20,0,0,1,0.00
2014-1-1,59.0,50.5,38.9,50.2,42.3,31.2,82,74,63,30.19,29.96,4,1,5,0.00
2014-1-2,54.9,45.9,33.0,48.3,32.0,24.9,91,60,40,30.41,30.01,13,5,22,0.00